Terminal Aerodrome Forecast
Issued by NWS Wakefield, VA

Home | Current Version | Previous Version | Text Only | Print | Product List | Glossary On
Versions: 1 2 3 4 5 6 7 8 9 10 11 12 13 14 15 16 17 18 19 20
000
FTUS41 KAKQ 302326
TAFRIC
TAF
KRIC 302326Z 3100/3124 17011KT P6SM SCT015 BKN060 BKN250
     FM310200 20004KT P6SM VCSH SCT040 BKN100
     FM310800 00000KT 4SM BR BKN250
     FM311300 22005KT P6SM BKN250=

USA.gov is the U.S. government's official web portal to all federal, state and local government web resources and services.